sensor_id;sensor_type;location;lat;lon;timestamp;P1;durP1;ratioP1;P2;durP2;ratioP2
42332;SDS011;27984;51.476;5.702;2024-03-06T00:01:41;38.33;;;25.65;;
42332;SDS011;27984;51.476;5.702;2024-03-06T00:04:07;39.08;;;25.92;;
42332;SDS011;27984;51.476;5.702;2024-03-06T00:06:33;35.55;;;24.58;;
42332;SDS011;27984;51.476;5.702;2024-03-06T00:08:59;38.08;;;25.00;;
42332;SDS011;27984;51.476;5.702;2024-03-06T00:11:27;38.05;;;25.85;;
42332;SDS011;27984;51.476;5.702;2024-03-06T00:13:53;32.55;;;23.83;;
42332;SDS011;27984;51.476;5.702;2024-03-06T00:16:19;36.38;;;24.73;;
42332;SDS011;27984;51.476;5.702;2024-03-06T00:18:45;41.38;;;26.17;;
42332;SDS011;27984;51.476;5.702;2024-03-06T00:21:11;35.67;;;23.52;;
42332;SDS011;27984;51.476;5.702;2024-03-06T00:23:38;33.40;;;23.48;;
42332;SDS011;27984;51.476;5.702;2024-03-06T00:26:04;35.90;;;25.20;;
42332;SDS011;27984;51.476;5.702;2024-03-06T00:28:30;37.92;;;24.35;;
42332;SDS011;27984;51.476;5.702;2024-03-06T00:30:56;34.45;;;23.13;;
42332;SDS011;27984;51.476;5.702;2024-03-06T00:33:23;35.08;;;24.75;;
42332;SDS011;27984;51.476;5.702;2024-03-06T00:35:49;34.80;;;24.15;;
42332;SDS011;27984;51.476;5.702;2024-03-06T00:38:15;31.90;;;23.85;;
42332;SDS011;27984;51.476;5.702;2024-03-06T00:40:41;34.70;;;23.85;;
42332;SDS011;27984;51.476;5.702;2024-03-06T00:43:07;32.78;;;24.27;;
42332;SDS011;27984;51.476;5.702;2024-03-06T00:45:33;33.25;;;23.85;;
42332;SDS011;27984;51.476;5.702;2024-03-06T00:47:59;33.60;;;24.25;;
42332;SDS011;27984;51.476;5.702;2024-03-06T00:50:25;35.08;;;23.75;;
42332;SDS011;27984;51.476;5.702;2024-03-06T00:52:51;37.28;;;25.23;;
42332;SDS011;27984;51.476;5.702;2024-03-06T00:55:17;36.10;;;25.25;;
42332;SDS011;27984;51.476;5.702;2024-03-06T00:57:43;34.53;;;23.95;;
42332;SDS011;27984;51.476;5.702;2024-03-06T01:00:09;36.60;;;24.92;;
42332;SDS011;27984;51.476;5.702;2024-03-06T01:02:38;39.05;;;24.92;;
42332;SDS011;27984;51.476;5.702;2024-03-06T01:05:05;35.28;;;24.70;;
42332;SDS011;27984;51.476;5.702;2024-03-06T01:07:32;38.13;;;25.25;;
42332;SDS011;27984;51.476;5.702;2024-03-06T01:09:58;39.90;;;26.00;;
42332;SDS011;27984;51.476;5.702;2024-03-06T01:12:24;33.05;;;24.55;;
42332;SDS011;27984;51.476;5.702;2024-03-06T01:14:50;35.13;;;25.48;;
42332;SDS011;27984;51.476;5.702;2024-03-06T01:17:16;37.78;;;25.73;;
42332;SDS011;27984;51.476;5.702;2024-03-06T01:19:42;37.97;;;25.10;;
42332;SDS011;27984;51.476;5.702;2024-03-06T01:22:09;40.28;;;25.45;;
42332;SDS011;27984;51.476;5.702;2024-03-06T01:24:35;39.10;;;25.33;;
42332;SDS011;27984;51.476;5.702;2024-03-06T01:27:01;40.95;;;25.38;;
42332;SDS011;27984;51.476;5.702;2024-03-06T01:29:28;38.72;;;25.35;;
42332;SDS011;27984;51.476;5.702;2024-03-06T01:31:54;36.13;;;24.35;;
42332;SDS011;27984;51.476;5.702;2024-03-06T01:34:20;42.20;;;26.70;;
42332;SDS011;27984;51.476;5.702;2024-03-06T01:36:47;40.47;;;26.90;;
42332;SDS011;27984;51.476;5.702;2024-03-06T01:39:13;39.55;;;26.17;;
42332;SDS011;27984;51.476;5.702;2024-03-06T01:41:48;45.45;;;28.38;;
42332;SDS011;27984;51.476;5.702;2024-03-06T01:44:15;43.70;;;27.67;;
42332;SDS011;27984;51.476;5.702;2024-03-06T01:46:41;45.78;;;28.30;;
42332;SDS011;27984;51.476;5.702;2024-03-06T01:49:07;40.38;;;26.75;;
42332;SDS011;27984;51.476;5.702;2024-03-06T01:51:34;44.03;;;29.30;;
42332;SDS011;27984;51.476;5.702;2024-03-06T01:54:00;44.33;;;29.70;;
42332;SDS011;27984;51.476;5.702;2024-03-06T01:56:29;48.00;;;31.23;;
42332;SDS011;27984;51.476;5.702;2024-03-06T01:58:55;50.15;;;30.98;;
42332;SDS011;27984;51.476;5.702;2024-03-06T02:01:21;48.60;;;30.55;;
42332;SDS011;27984;51.476;5.702;2024-03-06T02:03:48;43.78;;;28.67;;
42332;SDS011;27984;51.476;5.702;2024-03-06T02:06:14;44.47;;;28.65;;
42332;SDS011;27984;51.476;5.702;2024-03-06T02:08:44;43.95;;;28.50;;
42332;SDS011;27984;51.476;5.702;2024-03-06T02:11:10;44.30;;;28.77;;
42332;SDS011;27984;51.476;5.702;2024-03-06T02:13:36;47.55;;;28.70;;
42332;SDS011;27984;51.476;5.702;2024-03-06T02:16:02;40.47;;;27.48;;
42332;SDS011;27984;51.476;5.702;2024-03-06T02:18:28;41.78;;;28.33;;
42332;SDS011;27984;51.476;5.702;2024-03-06T02:20:54;41.03;;;27.20;;
42332;SDS011;27984;51.476;5.702;2024-03-06T02:23:20;43.50;;;29.23;;
42332;SDS011;27984;51.476;5.702;2024-03-06T02:25:47;44.28;;;28.25;;
42332;SDS011;27984;51.476;5.702;2024-03-06T02:28:13;46.45;;;28.63;;
42332;SDS011;27984;51.476;5.702;2024-03-06T02:30:39;44.25;;;28.90;;
42332;SDS011;27984;51.476;5.702;2024-03-06T02:33:05;45.05;;;28.20;;
42332;SDS011;27984;51.476;5.702;2024-03-06T02:35:32;46.00;;;28.15;;
42332;SDS011;27984;51.476;5.702;2024-03-06T02:37:59;43.42;;;28.10;;
42332;SDS011;27984;51.476;5.702;2024-03-06T02:40:25;46.65;;;28.80;;
42332;SDS011;27984;51.476;5.702;2024-03-06T02:42:51;43.95;;;28.52;;
42332;SDS011;27984;51.476;5.702;2024-03-06T02:45:17;46.13;;;30.02;;
42332;SDS011;27984;51.476;5.702;2024-03-06T02:47:44;47.78;;;29.15;;
42332;SDS011;27984;51.476;5.702;2024-03-06T02:50:10;44.33;;;28.52;;
42332;SDS011;27984;51.476;5.702;2024-03-06T02:52:36;46.70;;;29.08;;
42332;SDS011;27984;51.476;5.702;2024-03-06T02:55:02;49.35;;;29.80;;
42332;SDS011;27984;51.476;5.702;2024-03-06T02:57:28;47.42;;;30.50;;
42332;SDS011;27984;51.476;5.702;2024-03-06T02:59:57;46.50;;;29.05;;
42332;SDS011;27984;51.476;5.702;2024-03-06T03:02:23;46.15;;;28.52;;
42332;SDS011;27984;51.476;5.702;2024-03-06T03:04:50;44.08;;;27.90;;
42332;SDS011;27984;51.476;5.702;2024-03-06T03:07:17;43.45;;;28.05;;
42332;SDS011;27984;51.476;5.702;2024-03-06T03:09:44;44.97;;;27.83;;
42332;SDS011;27984;51.476;5.702;2024-03-06T03:12:10;43.13;;;27.00;;
42332;SDS011;27984;51.476;5.702;2024-03-06T03:14:36;44.70;;;28.10;;
42332;SDS011;27984;51.476;5.702;2024-03-06T03:17:02;45.92;;;28.33;;
42332;SDS011;27984;51.476;5.702;2024-03-06T03:19:30;43.90;;;27.83;;
42332;SDS011;27984;51.476;5.702;2024-03-06T03:21:56;52.75;;;30.52;;
42332;SDS011;27984;51.476;5.702;2024-03-06T03:24:23;60.63;;;32.15;;
42332;SDS011;27984;51.476;5.702;2024-03-06T03:26:50;66.63;;;32.50;;
42332;SDS011;27984;51.476;5.702;2024-03-06T03:29:16;57.88;;;32.95;;
42332;SDS011;27984;51.476;5.702;2024-03-06T03:31:42;57.55;;;30.77;;
42332;SDS011;27984;51.476;5.702;2024-03-06T03:34:08;49.17;;;28.67;;
42332;SDS011;27984;51.476;5.702;2024-03-06T03:36:39;47.65;;;28.95;;
42332;SDS011;27984;51.476;5.702;2024-03-06T03:39:05;45.90;;;28.25;;
42332;SDS011;27984;51.476;5.702;2024-03-06T03:41:33;49.08;;;29.42;;
42332;SDS011;27984;51.476;5.702;2024-03-06T03:43:59;68.28;;;30.30;;
42332;SDS011;27984;51.476;5.702;2024-03-06T03:46:25;78.25;;;29.20;;
42332;SDS011;27984;51.476;5.702;2024-03-06T03:48:50;54.92;;;30.45;;
42332;SDS011;27984;51.476;5.702;2024-03-06T03:51:16;49.53;;;29.77;;
42332;SDS011;27984;51.476;5.702;2024-03-06T03:53:42;52.03;;;28.58;;
42332;SDS011;27984;51.476;5.702;2024-03-06T03:56:08;48.75;;;28.88;;
42332;SDS011;27984;51.476;5.702;2024-03-06T03:58:34;44.35;;;27.60;;
42332;SDS011;27984;51.476;5.702;2024-03-06T04:01:00;43.72;;;27.75;;
42332;SDS011;27984;51.476;5.702;2024-03-06T04:03:26;44.30;;;27.23;;
42332;SDS011;27984;51.476;5.702;2024-03-06T04:05:52;45.17;;;27.85;;
42332;SDS011;27984;51.476;5.702;2024-03-06T04:08:18;41.70;;;26.73;;
42332;SDS011;27984;51.476;5.702;2024-03-06T04:10:44;40.60;;;26.30;;
42332;SDS011;27984;51.476;5.702;2024-03-06T04:13:11;41.88;;;26.77;;
42332;SDS011;27984;51.476;5.702;2024-03-06T04:15:37;40.20;;;25.80;;
42332;SDS011;27984;51.476;5.702;2024-03-06T04:18:03;39.78;;;26.58;;
42332;SDS011;27984;51.476;5.702;2024-03-06T04:20:29;38.22;;;25.33;;
42332;SDS011;27984;51.476;5.702;2024-03-06T04:22:55;39.22;;;25.35;;
42332;SDS011;27984;51.476;5.702;2024-03-06T04:25:21;39.90;;;25.90;;
42332;SDS011;27984;51.476;5.702;2024-03-06T04:27:48;41.53;;;26.45;;
42332;SDS011;27984;51.476;5.702;2024-03-06T04:30:14;42.08;;;26.10;;
42332;SDS011;27984;51.476;5.702;2024-03-06T04:32:40;45.08;;;26.88;;
42332;SDS011;27984;51.476;5.702;2024-03-06T04:35:06;66.90;;;28.42;;
42332;SDS011;27984;51.476;5.702;2024-03-06T04:37:34;70.45;;;28.35;;
42332;SDS011;27984;51.476;5.702;2024-03-06T04:40:00;84.18;;;27.25;;
42332;SDS011;27984;51.476;5.702;2024-03-06T04:42:27;76.20;;;27.95;;
42332;SDS011;27984;51.476;5.702;2024-03-06T04:44:53;132.85;;;29.13;;
42332;SDS011;27984;51.476;5.702;2024-03-06T04:47:20;99.13;;;29.60;;
42332;SDS011;27984;51.476;5.702;2024-03-06T04:49:45;88.03;;;27.80;;
42332;SDS011;27984;51.476;5.702;2024-03-06T04:52:11;64.47;;;28.40;;
42332;SDS011;27984;51.476;5.702;2024-03-06T04:54:37;61.03;;;28.65;;
42332;SDS011;27984;51.476;5.702;2024-03-06T04:57:04;58.65;;;27.42;;
42332;SDS011;27984;51.476;5.702;2024-03-06T04:59:30;66.05;;;27.55;;
42332;SDS011;27984;51.476;5.702;2024-03-06T05:01:56;52.97;;;26.90;;
42332;SDS011;27984;51.476;5.702;2024-03-06T05:04:22;61.22;;;28.00;;
42332;SDS011;27984;51.476;5.702;2024-03-06T05:06:48;55.53;;;27.45;;
42332;SDS011;27984;51.476;5.702;2024-03-06T05:09:14;72.82;;;27.45;;
42332;SDS011;27984;51.476;5.702;2024-03-06T05:11:40;58.15;;;26.70;;
42332;SDS011;27984;51.476;5.702;2024-03-06T05:14:06;51.47;;;26.92;;
42332;SDS011;27984;51.476;5.702;2024-03-06T05:16:32;52.10;;;26.70;;
42332;SDS011;27984;51.476;5.702;2024-03-06T05:18:58;57.53;;;26.90;;
42332;SDS011;27984;51.476;5.702;2024-03-06T05:21:24;53.60;;;28.13;;
42332;SDS011;27984;51.476;5.702;2024-03-06T05:23:50;48.28;;;27.23;;
42332;SDS011;27984;51.476;5.702;2024-03-06T05:26:17;67.75;;;27.27;;
42332;SDS011;27984;51.476;5.702;2024-03-06T05:28:43;60.70;;;27.20;;
42332;SDS011;27984;51.476;5.702;2024-03-06T05:31:16;43.10;;;27.02;;
42332;SDS011;27984;51.476;5.702;2024-03-06T05:33:48;38.53;;;25.60;;
42332;SDS011;27984;51.476;5.702;2024-03-06T05:36:15;40.70;;;26.10;;
42332;SDS011;27984;51.476;5.702;2024-03-06T05:38:42;36.45;;;24.73;;
42332;SDS011;27984;51.476;5.702;2024-03-06T05:41:08;39.65;;;24.88;;
42332;SDS011;27984;51.476;5.702;2024-03-06T05:43:34;35.20;;;24.05;;
42332;SDS011;27984;51.476;5.702;2024-03-06T05:46:00;39.15;;;24.30;;
42332;SDS011;27984;51.476;5.702;2024-03-06T05:48:26;37.08;;;23.52;;
42332;SDS011;27984;51.476;5.702;2024-03-06T05:50:55;36.33;;;24.60;;
42332;SDS011;27984;51.476;5.702;2024-03-06T05:53:22;33.80;;;22.88;;
42332;SDS011;27984;51.476;5.702;2024-03-06T05:55:48;35.13;;;23.80;;
42332;SDS011;27984;51.476;5.702;2024-03-06T05:58:14;34.28;;;23.48;;
42332;SDS011;27984;51.476;5.702;2024-03-06T06:00:41;33.17;;;23.00;;
42332;SDS011;27984;51.476;5.702;2024-03-06T06:03:08;31.58;;;22.55;;
42332;SDS011;27984;51.476;5.702;2024-03-06T06:05:36;31.63;;;22.15;;
42332;SDS011;27984;51.476;5.702;2024-03-06T06:08:04;35.35;;;22.33;;
42332;SDS011;27984;51.476;5.702;2024-03-06T06:10:30;31.67;;;22.10;;
42332;SDS011;27984;51.476;5.702;2024-03-06T06:12:56;34.25;;;22.52;;
42332;SDS011;27984;51.476;5.702;2024-03-06T06:15:22;30.30;;;22.25;;
42332;SDS011;27984;51.476;5.702;2024-03-06T06:17:48;30.80;;;21.27;;
42332;SDS011;27984;51.476;5.702;2024-03-06T06:20:14;31.52;;;22.33;;
42332;SDS011;27984;51.476;5.702;2024-03-06T06:22:41;31.58;;;22.80;;
42332;SDS011;27984;51.476;5.702;2024-03-06T06:25:07;30.58;;;21.00;;
42332;SDS011;27984;51.476;5.702;2024-03-06T06:27:34;29.67;;;21.05;;
42332;SDS011;27984;51.476;5.702;2024-03-06T06:30:01;30.50;;;22.05;;
42332;SDS011;27984;51.476;5.702;2024-03-06T06:32:27;30.75;;;21.40;;
42332;SDS011;27984;51.476;5.702;2024-03-06T06:34:53;28.48;;;20.77;;
42332;SDS011;27984;51.476;5.702;2024-03-06T06:37:19;30.88;;;20.48;;
42332;SDS011;27984;51.476;5.702;2024-03-06T06:39:45;29.95;;;21.60;;
42332;SDS011;27984;51.476;5.702;2024-03-06T06:42:11;29.05;;;21.05;;
42332;SDS011;27984;51.476;5.702;2024-03-06T06:44:37;29.00;;;21.17;;
42332;SDS011;27984;51.476;5.702;2024-03-06T06:47:03;33.10;;;22.60;;
42332;SDS011;27984;51.476;5.702;2024-03-06T06:49:29;32.70;;;21.73;;
42332;SDS011;27984;51.476;5.702;2024-03-06T06:51:55;30.98;;;20.67;;
42332;SDS011;27984;51.476;5.702;2024-03-06T06:54:21;29.88;;;21.55;;
42332;SDS011;27984;51.476;5.702;2024-03-06T06:56:47;28.45;;;20.63;;
42332;SDS011;27984;51.476;5.702;2024-03-06T06:59:13;29.60;;;21.40;;
42332;SDS011;27984;51.476;5.702;2024-03-06T07:01:39;31.42;;;21.88;;
42332;SDS011;27984;51.476;5.702;2024-03-06T07:04:06;30.50;;;22.23;;
42332;SDS011;27984;51.476;5.702;2024-03-06T07:06:32;31.23;;;22.00;;
42332;SDS011;27984;51.476;5.702;2024-03-06T07:08:58;32.47;;;22.30;;
42332;SDS011;27984;51.476;5.702;2024-03-06T07:11:24;29.55;;;22.08;;
42332;SDS011;27984;51.476;5.702;2024-03-06T07:13:50;31.15;;;21.77;;
42332;SDS011;27984;51.476;5.702;2024-03-06T07:16:16;33.13;;;21.35;;
42332;SDS011;27984;51.476;5.702;2024-03-06T07:18:42;28.63;;;20.85;;
42332;SDS011;27984;51.476;5.702;2024-03-06T07:21:08;27.23;;;20.08;;
42332;SDS011;27984;51.476;5.702;2024-03-06T07:23:34;29.33;;;20.80;;
42332;SDS011;27984;51.476;5.702;2024-03-06T07:26:00;27.52;;;21.33;;
42332;SDS011;27984;51.476;5.702;2024-03-06T07:28:26;28.08;;;21.65;;
42332;SDS011;27984;51.476;5.702;2024-03-06T07:30:52;26.08;;;18.17;;
42332;SDS011;27984;51.476;5.702;2024-03-06T07:33:18;22.30;;;17.27;;
42332;SDS011;27984;51.476;5.702;2024-03-06T07:35:44;22.77;;;16.42;;
42332;SDS011;27984;51.476;5.702;2024-03-06T07:38:10;19.65;;;15.80;;
42332;SDS011;27984;51.476;5.702;2024-03-06T07:40:36;20.77;;;14.90;;
42332;SDS011;27984;51.476;5.702;2024-03-06T07:43:02;20.33;;;13.98;;
42332;SDS011;27984;51.476;5.702;2024-03-06T07:45:29;18.40;;;13.55;;
42332;SDS011;27984;51.476;5.702;2024-03-06T07:47:55;19.02;;;13.48;;
42332;SDS011;27984;51.476;5.702;2024-03-06T07:50:21;18.50;;;13.18;;
42332;SDS011;27984;51.476;5.702;2024-03-06T07:52:47;15.13;;;12.38;;
42332;SDS011;27984;51.476;5.702;2024-03-06T07:55:13;14.25;;;11.85;;
42332;SDS011;27984;51.476;5.702;2024-03-06T07:57:40;12.98;;;11.10;;
42332;SDS011;27984;51.476;5.702;2024-03-06T08:00:06;12.40;;;10.48;;
42332;SDS011;27984;51.476;5.702;2024-03-06T08:02:44;13.52;;;10.40;;
42332;SDS011;27984;51.476;5.702;2024-03-06T08:05:14;11.27;;;9.57;;
42332;SDS011;27984;51.476;5.702;2024-03-06T08:07:40;11.15;;;9.13;;
42332;SDS011;27984;51.476;5.702;2024-03-06T08:10:08;11.13;;;9.02;;
42332;SDS011;27984;51.476;5.702;2024-03-06T08:12:34;10.05;;;8.88;;
42332;SDS011;27984;51.476;5.702;2024-03-06T08:15:00;14.23;;;8.68;;
42332;SDS011;27984;51.476;5.702;2024-03-06T08:17:28;10.60;;;8.07;;
42332;SDS011;27984;51.476;5.702;2024-03-06T08:19:54;9.70;;;7.93;;
42332;SDS011;27984;51.476;5.702;2024-03-06T08:22:20;12.43;;;7.90;;
42332;SDS011;27984;51.476;5.702;2024-03-06T08:24:46;8.85;;;7.90;;
42332;SDS011;27984;51.476;5.702;2024-03-06T08:27:13;11.80;;;7.90;;
42332;SDS011;27984;51.476;5.702;2024-03-06T08:29:39;10.15;;;8.15;;
42332;SDS011;27984;51.476;5.702;2024-03-06T08:32:05;10.68;;;7.75;;
42332;SDS011;27984;51.476;5.702;2024-03-06T08:34:31;12.73;;;7.20;;
42332;SDS011;27984;51.476;5.702;2024-03-06T08:36:57;9.90;;;7.30;;
42332;SDS011;27984;51.476;5.702;2024-03-06T08:39:23;10.48;;;7.43;;
42332;SDS011;27984;51.476;5.702;2024-03-06T08:41:49;10.18;;;7.63;;
42332;SDS011;27984;51.476;5.702;2024-03-06T08:44:15;9.43;;;7.50;;
42332;SDS011;27984;51.476;5.702;2024-03-06T08:46:41;10.82;;;7.75;;
42332;SDS011;27984;51.476;5.702;2024-03-06T08:49:07;10.45;;;7.50;;
42332;SDS011;27984;51.476;5.702;2024-03-06T08:51:33;11.05;;;7.22;;
42332;SDS011;27984;51.476;5.702;2024-03-06T08:53:59;9.52;;;7.07;;
42332;SDS011;27984;51.476;5.702;2024-03-06T08:56:25;8.82;;;7.13;;
42332;SDS011;27984;51.476;5.702;2024-03-06T08:58:51;9.13;;;6.93;;
42332;SDS011;27984;51.476;5.702;2024-03-06T09:01:17;10.48;;;7.07;;
42332;SDS011;27984;51.476;5.702;2024-03-06T09:03:43;9.60;;;7.32;;
42332;SDS011;27984;51.476;5.702;2024-03-06T09:06:09;11.82;;;7.53;;
42332;SDS011;27984;51.476;5.702;2024-03-06T09:08:35;9.75;;;7.57;;
42332;SDS011;27984;51.476;5.702;2024-03-06T09:11:01;9.40;;;7.43;;
42332;SDS011;27984;51.476;5.702;2024-03-06T09:13:27;8.85;;;7.93;;
42332;SDS011;27984;51.476;5.702;2024-03-06T09:15:53;11.25;;;8.20;;
42332;SDS011;27984;51.476;5.702;2024-03-06T09:18:19;8.98;;;7.68;;
42332;SDS011;27984;51.476;5.702;2024-03-06T09:20:46;10.27;;;8.07;;
42332;SDS011;27984;51.476;5.702;2024-03-06T09:23:12;11.68;;;8.23;;
42332;SDS011;27984;51.476;5.702;2024-03-06T09:25:38;12.68;;;8.45;;
42332;SDS011;27984;51.476;5.702;2024-03-06T09:28:05;11.07;;;8.15;;
42332;SDS011;27984;51.476;5.702;2024-03-06T09:30:33;9.55;;;8.10;;
42332;SDS011;27984;51.476;5.702;2024-03-06T09:32:59;11.38;;;8.40;;
42332;SDS011;27984;51.476;5.702;2024-03-06T09:35:25;9.25;;;8.10;;
42332;SDS011;27984;51.476;5.702;2024-03-06T09:37:51;12.55;;;7.90;;
42332;SDS011;27984;51.476;5.702;2024-03-06T09:40:21;14.73;;;8.52;;
42332;SDS011;27984;51.476;5.702;2024-03-06T09:42:48;9.65;;;8.10;;
42332;SDS011;27984;51.476;5.702;2024-03-06T09:45:14;15.40;;;8.05;;
42332;SDS011;27984;51.476;5.702;2024-03-06T09:47:41;11.35;;;7.90;;
42332;SDS011;27984;51.476;5.702;2024-03-06T09:50:08;12.05;;;7.28;;
42332;SDS011;27984;51.476;5.702;2024-03-06T09:52:36;9.90;;;7.50;;
42332;SDS011;27984;51.476;5.702;2024-03-06T09:55:02;13.23;;;7.45;;
42332;SDS011;27984;51.476;5.702;2024-03-06T09:57:29;8.73;;;6.85;;
42332;SDS011;27984;51.476;5.702;2024-03-06T09:59:55;8.27;;;6.60;;
42332;SDS011;27984;51.476;5.702;2024-03-06T10:04:46;8.90;;;6.30;;
42332;SDS011;27984;51.476;5.702;2024-03-06T10:07:12;8.43;;;6.13;;
42332;SDS011;27984;51.476;5.702;2024-03-06T10:09:39;9.80;;;7.82;;
42332;SDS011;27984;51.476;5.702;2024-03-06T10:12:05;10.30;;;6.28;;
42332;SDS011;27984;51.476;5.702;2024-03-06T10:14:31;8.57;;;6.13;;
42332;SDS011;27984;51.476;5.702;2024-03-06T10:17:00;9.25;;;6.03;;
42332;SDS011;27984;51.476;5.702;2024-03-06T10:19:27;8.68;;;5.80;;
42332;SDS011;27984;51.476;5.702;2024-03-06T10:21:54;7.30;;;5.97;;
42332;SDS011;27984;51.476;5.702;2024-03-06T10:24:22;6.85;;;5.75;;
42332;SDS011;27984;51.476;5.702;2024-03-06T10:26:49;6.70;;;5.35;;
42332;SDS011;27984;51.476;5.702;2024-03-06T10:29:16;7.38;;;4.82;;
42332;SDS011;27984;51.476;5.702;2024-03-06T10:31:51;6.22;;;5.22;;
42332;SDS011;27984;51.476;5.702;2024-03-06T10:34:17;5.32;;;4.50;;
42332;SDS011;27984;51.476;5.702;2024-03-06T10:36:45;4.38;;;3.97;;
42332;SDS011;27984;51.476;5.702;2024-03-06T10:39:11;5.75;;;4.47;;
42332;SDS011;27984;51.476;5.702;2024-03-06T10:41:41;5.70;;;3.92;;
42332;SDS011;27984;51.476;5.702;2024-03-06T10:44:09;4.38;;;3.40;;
42332;SDS011;27984;51.476;5.702;2024-03-06T10:46:38;6.50;;;3.30;;
42332;SDS011;27984;51.476;5.702;2024-03-06T10:49:05;4.75;;;3.13;;
42332;SDS011;27984;51.476;5.702;2024-03-06T10:51:32;4.75;;;3.28;;
42332;SDS011;27984;51.476;5.702;2024-03-06T10:53:58;3.33;;;3.03;;
42332;SDS011;27984;51.476;5.702;2024-03-06T10:56:25;4.90;;;3.33;;
42332;SDS011;27984;51.476;5.702;2024-03-06T10:58:51;6.43;;;4.53;;
42332;SDS011;27984;51.476;5.702;2024-03-06T11:01:19;4.55;;;4.15;;
42332;SDS011;27984;51.476;5.702;2024-03-06T11:03:45;4.95;;;4.20;;
42332;SDS011;27984;51.476;5.702;2024-03-06T11:06:13;4.90;;;4.07;;
42332;SDS011;27984;51.476;5.702;2024-03-06T11:08:39;5.22;;;4.30;;
42332;SDS011;27984;51.476;5.702;2024-03-06T11:11:24;6.10;;;4.72;;
42332;SDS011;27984;51.476;5.702;2024-03-06T11:13:59;7.25;;;5.30;;
42332;SDS011;27984;51.476;5.702;2024-03-06T11:16:32;5.60;;;5.10;;
42332;SDS011;27984;51.476;5.702;2024-03-06T11:19:18;7.72;;;5.25;;
42332;SDS011;27984;51.476;5.702;2024-03-06T11:21:47;6.68;;;4.97;;
42332;SDS011;27984;51.476;5.702;2024-03-06T11:24:20;7.07;;;5.40;;
42332;SDS011;27984;51.476;5.702;2024-03-06T11:26:56;5.50;;;4.65;;
42332;SDS011;27984;51.476;5.702;2024-03-06T11:29:23;7.47;;;4.57;;
42332;SDS011;27984;51.476;5.702;2024-03-06T11:31:59;6.40;;;4.88;;
42332;SDS011;27984;51.476;5.702;2024-03-06T11:34:26;5.35;;;4.80;;
42332;SDS011;27984;51.476;5.702;2024-03-06T11:36:56;8.93;;;5.05;;
42332;SDS011;27984;51.476;5.702;2024-03-06T11:39:22;7.47;;;4.60;;
42332;SDS011;27984;51.476;5.702;2024-03-06T11:41:49;6.38;;;5.07;;
42332;SDS011;27984;51.476;5.702;2024-03-06T11:44:15;5.82;;;4.53;;
42332;SDS011;27984;51.476;5.702;2024-03-06T11:46:42;6.03;;;4.68;;
42332;SDS011;27984;51.476;5.702;2024-03-06T11:49:18;7.00;;;4.47;;
42332;SDS011;27984;51.476;5.702;2024-03-06T11:51:46;7.30;;;4.63;;
42332;SDS011;27984;51.476;5.702;2024-03-06T11:54:12;5.93;;;4.63;;
42332;SDS011;27984;51.476;5.702;2024-03-06T11:56:43;6.95;;;4.93;;
42332;SDS011;27984;51.476;5.702;2024-03-06T11:59:10;4.32;;;3.83;;
42332;SDS011;27984;51.476;5.702;2024-03-06T12:01:37;4.22;;;3.40;;
42332;SDS011;27984;51.476;5.702;2024-03-06T12:04:03;5.65;;;3.13;;
42332;SDS011;27984;51.476;5.702;2024-03-06T12:06:30;5.35;;;3.30;;
42332;SDS011;27984;51.476;5.702;2024-03-06T12:08:57;6.38;;;4.18;;
42332;SDS011;27984;51.476;5.702;2024-03-06T12:11:23;6.90;;;5.00;;
42332;SDS011;27984;51.476;5.702;2024-03-06T12:13:53;9.73;;;5.30;;
42332;SDS011;27984;51.476;5.702;2024-03-06T12:16:19;10.68;;;5.30;;
42332;SDS011;27984;51.476;5.702;2024-03-06T12:18:45;6.30;;;4.95;;
42332;SDS011;27984;51.476;5.702;2024-03-06T12:21:11;8.88;;;5.55;;
42332;SDS011;27984;51.476;5.702;2024-03-06T12:23:38;10.18;;;5.70;;
42332;SDS011;27984;51.476;5.702;2024-03-06T12:26:09;12.50;;;5.95;;
42332;SDS011;27984;51.476;5.702;2024-03-06T12:28:39;9.07;;;5.68;;
42332;SDS011;27984;51.476;5.702;2024-03-06T12:31:05;8.93;;;5.93;;
42332;SDS011;27984;51.476;5.702;2024-03-06T12:33:32;7.65;;;5.70;;
42332;SDS011;27984;51.476;5.702;2024-03-06T12:36:05;8.40;;;6.07;;
42332;SDS011;27984;51.476;5.702;2024-03-06T12:38:32;9.60;;;6.00;;
42332;SDS011;27984;51.476;5.702;2024-03-06T12:40:58;6.82;;;5.88;;
42332;SDS011;27984;51.476;5.702;2024-03-06T12:43:25;8.52;;;6.07;;
42332;SDS011;27984;51.476;5.702;2024-03-06T12:45:51;9.43;;;5.72;;
42332;SDS011;27984;51.476;5.702;2024-03-06T12:48:22;7.70;;;5.65;;
42332;SDS011;27984;51.476;5.702;2024-03-06T12:50:48;7.53;;;4.78;;
42332;SDS011;27984;51.476;5.702;2024-03-06T12:53:22;7.40;;;5.10;;
42332;SDS011;27984;51.476;5.702;2024-03-06T12:55:48;6.00;;;4.57;;
42332;SDS011;27984;51.476;5.702;2024-03-06T12:58:14;6.93;;;4.88;;
42332;SDS011;27984;51.476;5.702;2024-03-06T13:00:41;6.40;;;4.70;;
42332;SDS011;27984;51.476;5.702;2024-03-06T13:03:07;5.65;;;4.07;;
42332;SDS011;27984;51.476;5.702;2024-03-06T13:05:33;5.13;;;4.15;;
42332;SDS011;27984;51.476;5.702;2024-03-06T13:07:59;12.77;;;9.50;;
42332;SDS011;27984;51.476;5.702;2024-03-06T13:10:25;5.82;;;5.22;;
42332;SDS011;27984;51.476;5.702;2024-03-06T13:12:51;4.25;;;3.15;;
42332;SDS011;27984;51.476;5.702;2024-03-06T13:15:17;5.95;;;3.08;;
42332;SDS011;27984;51.476;5.702;2024-03-06T13:17:43;4.80;;;3.08;;
42332;SDS011;27984;51.476;5.702;2024-03-06T13:20:09;3.95;;;3.35;;
42332;SDS011;27984;51.476;5.702;2024-03-06T13:22:36;6.97;;;3.53;;
42332;SDS011;27984;51.476;5.702;2024-03-06T13:25:02;5.18;;;3.85;;
42332;SDS011;27984;51.476;5.702;2024-03-06T13:27:29;5.10;;;4.10;;
42332;SDS011;27984;51.476;5.702;2024-03-06T13:29:56;6.65;;;4.20;;
42332;SDS011;27984;51.476;5.702;2024-03-06T13:32:22;5.93;;;4.28;;
42332;SDS011;27984;51.476;5.702;2024-03-06T13:34:48;5.15;;;3.85;;
42332;SDS011;27984;51.476;5.702;2024-03-06T13:37:14;5.15;;;3.80;;
42332;SDS011;27984;51.476;5.702;2024-03-06T13:39:41;4.45;;;3.88;;
42332;SDS011;27984;51.476;5.702;2024-03-06T13:42:07;5.47;;;4.18;;
42332;SDS011;27984;51.476;5.702;2024-03-06T13:44:36;5.45;;;3.85;;
42332;SDS011;27984;51.476;5.702;2024-03-06T13:47:03;6.13;;;4.10;;
42332;SDS011;27984;51.476;5.702;2024-03-06T13:49:38;6.93;;;4.80;;
42332;SDS011;27984;51.476;5.702;2024-03-06T13:52:05;7.20;;;3.97;;
42332;SDS011;27984;51.476;5.702;2024-03-06T13:54:32;5.03;;;3.92;;
42332;SDS011;27984;51.476;5.702;2024-03-06T13:56:58;6.30;;;4.82;;
42332;SDS011;27984;51.476;5.702;2024-03-06T13:59:28;6.40;;;4.53;;
42332;SDS011;27984;51.476;5.702;2024-03-06T14:01:54;8.18;;;4.30;;
42332;SDS011;27984;51.476;5.702;2024-03-06T14:04:20;8.65;;;4.85;;
42332;SDS011;27984;51.476;5.702;2024-03-06T14:06:46;5.40;;;4.50;;
42332;SDS011;27984;51.476;5.702;2024-03-06T14:09:13;5.65;;;4.32;;
42332;SDS011;27984;51.476;5.702;2024-03-06T14:11:39;4.85;;;4.38;;
42332;SDS011;27984;51.476;5.702;2024-03-06T14:14:05;6.82;;;4.70;;
42332;SDS011;27984;51.476;5.702;2024-03-06T14:16:33;6.80;;;4.53;;
42332;SDS011;27984;51.476;5.702;2024-03-06T14:18:59;5.95;;;4.95;;
42332;SDS011;27984;51.476;5.702;2024-03-06T14:21:25;8.95;;;5.40;;
42332;SDS011;27984;51.476;5.702;2024-03-06T14:23:51;7.45;;;5.38;;
42332;SDS011;27984;51.476;5.702;2024-03-06T14:26:17;6.00;;;5.40;;
42332;SDS011;27984;51.476;5.702;2024-03-06T14:28:43;7.40;;;6.15;;
42332;SDS011;27984;51.476;5.702;2024-03-06T14:31:09;8.27;;;6.05;;